Terminal Aerodrome Forecast
Issued by NWS

Home | Current Version | Previous Version | Text Only | Print | Product List | Glossary On
Versions: 1 2 3 4 5 6 7 8 9 10 11 12 13 14 15 16 17 18 19 20 21
000
FTUS42 KJAX 270520
TAFVQQ
TAF
KVQQ 270520Z 2706/2806 00000KT P6SM VCSH SCT015 BKN035 BKN060
     FM270900 00000KT 5SM BR SCT005 SCT015
     FM271300 12004KT P6SM SCT015 SCT250
     FM271600 10008KT P6SM SCT035 SCT250=

USA.gov is the U.S. government's official web portal to all federal, state and local government web resources and services.